Latest Weather Observations for Kilmore Gap

IDV60801

Issued at 8:31 pm EDT Tuesday 9 February 2016 (issued every 30 minutes, with the page automatically refreshed every 10 minutes)

About weather observations | Map of weather stations | Latest weather observations for VIC | Other Formats
Station Details ID: 088162 Name: KILMORE GAP Lat: -37.38 Lon: 144.97 Height: 527.8 m
Data from the previous 72 hours. | See also: Recent months at Kilmore Gap
Date/Time
EDT
Temp
°C
App
Temp
°C
Dew
Point
Rel
Hum
%
Delta-T
°C
Wind Press
QNH
hPa
Press
MSL
hPa
Rain
since 9 am
mm
Dir
 
Spd
km/h
Gust
km/h
Spd
kts
Gust
kts
09/08:30pm 17.3 14.7 13.8 80 2.0 S 20 28 11 15 1018.2 - 0.0
09/08:00pm 18.9 16.5 13.7 72 3.0 S 19 28 10 15 1018.3 - 0.0
09/07:30pm 20.8 18.5 14.0 65 4.0 S 19 24 10 13 1018.1 - 0.0
09/07:00pm 21.9 19.7 14.3 62 4.6 S 19 28 10 15 1018.1 - 0.0
09/06:30pm 23.0 20.8 14.3 58 5.2 S 19 24 10 13 1017.9 - 0.0
09/06:00pm 23.5 20.5 13.7 54 5.8 SSE 22 33 12 18 1017.9 1016.1 0.0
09/05:30pm 24.9 22.3 13.8 50 6.7 SSE 20 32 11 17 1018.2 - 0.0
09/05:00pm 26.0 24.1 14.1 47 7.2 S 17 28 9 15 1018.6 - 0.0
09/04:30pm 25.9 23.6 13.1 45 7.6 S 17 28 9 15 1018.8 - 0.0
09/04:00pm 25.5 22.8 13.0 46 7.4 SSE 19 24 10 13 1019.0 - 0.0
09/03:30pm 25.6 23.6 12.8 45 7.6 S 15 22 8 12 1019.4 - 0.0
09/03:00pm 25.2 22.8 12.8 46 7.3 S 17 30 9 16 1019.7 1017.9 0.0
09/02:30pm 24.9 22.0 12.8 47 7.2 SSE 20 30 11 16 1020.1 - 0.0
09/02:00pm 24.1 21.8 13.0 50 6.6 SSE 17 30 9 16 1020.4 - 0.0
09/01:30pm 23.6 20.9 12.9 51 6.3 SSE 19 28 10 15 1020.6 - 0.0
09/01:00pm 22.7 20.7 12.6 53 5.9 S 15 24 8 13 1020.8 - 0.0
09/12:30pm 22.2 19.8 12.5 54 5.6 SSE 17 28 9 15 1021.1 - 0.0
09/12:00pm 20.9 17.9 11.8 56 5.2 SSE 19 28 10 15 1021.5 1019.7 0.0
09/11:30am 19.8 16.8 12.1 61 4.4 S 19 28 10 15 1021.7 - 0.0
09/11:00am 19.1 16.0 11.7 62 4.2 S 19 32 10 17 1021.9 - 0.0
09/10:30am 17.5 13.7 11.3 67 3.5 S 22 32 12 17 1021.8 - 0.0
09/10:00am 16.9 13.2 11.6 71 3.0 S 22 32 12 17 1021.8 - 0.0
09/09:30am 16.2 12.9 11.6 74 2.6 S 20 32 11 17 1022.0 - 0.0
09/09:00am 15.1 11.3 11.3 78 2.1 S 22 32 12 17 1022.0 1020.3 0.0
09/08:48am 15.5 11.9 11.9 79 2.0 SSE 22 33 12 18 1021.9 - 0.0
09/08:30am 14.9 11.6 11.7 81 1.8 S 20 30 11 16 1021.8 - 0.0
09/08:00am 13.8 9.7 11.5 86 1.3 S 24 33 13 18 1021.7 - 0.0
09/07:30am 12.9 9.1 11.3 90 0.9 S 22 33 12 18 1021.7 - 0.0
09/07:00am 12.7 8.5 11.1 90 0.9 S 24 33 13 18 1021.6 - 0.0
09/06:30am 12.8 7.5 11.4 91 0.8 S 30 39 16 21 1021.1 - 0.0
09/06:00am 12.8 7.9 11.4 91 0.8 S 28 41 15 22 1021.0 1019.2 0.0
09/05:30am 12.9 8.0 11.3 90 0.9 S 28 41 15 22 1021.0 - 0.0
09/05:00am 13.1 7.8 11.3 89 1.0 S 30 37 16 20 1020.9 - 0.0
09/04:30am 13.3 8.0 11.4 88 1.0 S 30 39 16 21 1020.8 - 0.0
09/04:00am 13.4 9.5 12.0 91 0.8 S 24 33 13 18 1020.9 - 0.0
09/03:30am 13.3 8.5 11.7 90 0.9 S 28 37 15 20 1020.9 - 0.0
09/03:00am 13.4 8.9 11.5 88 1.0 S 26 35 14 19 1021.3 1019.5 0.0
09/02:30am 13.2 8.8 11.6 90 0.9 S 26 35 14 19 1021.5 - 0.0
09/02:00am 12.8 9.2 12.0 95 0.4 S 22 32 12 17 1021.8 - 0.0
09/01:30am 12.6 9.0 11.8 95 0.4 S 22 32 12 17 1022.1 - 0.0
09/01:21am 12.6 9.0 11.8 95 0.4 S 22 32 12 17 1022.2 - 0.0
09/01:00am 12.6 8.7 12.0 96 0.3 S 24 33 13 18 1022.3 - 0.0
09/12:48am 12.5 8.5 11.9 96 0.3 S 24 32 13 17 1022.4 - 0.0
09/12:30am 12.6 9.0 12.0 96 0.3 S 22 30 12 16 1022.6 - 0.0
09/12:00am 12.9 9.4 12.1 95 0.4 S 22 32 12 17 1022.8 1021.0 0.0
 
Date/Time
EDT
Temp
°C
App
Temp
°C
Dew
Point
Rel
Hum
%
Delta-T
°C
Wind Press
QNH
hPa
Press
MSL
hPa
Rain
since 9 am
mm
Dir
 
Spd
km/h
Gust
km/h
Spd
kts
Gust
kts
08/11:30pm 13.6 10.0 12.0 90 0.9 S 22 33 12 18 1023.0 - 0.0
08/11:00pm 14.4 9.7 11.9 85 1.4 S 28 41 15 22 1022.9 - 0.0
08/10:30pm 14.2 9.2 13.4 95 0.5 S 32 41 17 22 1022.9 - 0.0
08/10:16pm 13.9 9.2 13.1 95 0.5 S 30 43 16 23 1022.9 - 0.0
08/10:00pm 13.8 9.0 12.9 94 0.5 S 30 43 16 23 1022.7 - 0.0
08/09:30pm 14.1 9.7 13.0 93 0.6 S 28 37 15 20 1022.7 - 0.0
08/09:00pm 14.7 10.3 12.9 89 1.0 S 28 37 15 20 1022.3 1020.6 0.0
08/08:30pm 15.3 11.6 12.6 84 1.5 S 24 37 13 20 1022.2 - 0.0
08/08:00pm 16.6 11.7 12.4 76 2.4 S 30 41 16 22 1022.0 - 0.0
08/07:30pm 18.1 14.0 12.8 71 3.0 S 26 41 14 22 1021.8 - 0.0
08/07:00pm 19.4 14.8 12.4 64 4.0 S 28 43 15 23 1021.6 - 0.0
08/06:30pm 19.7 15.3 12.9 65 3.9 S 28 37 15 20 1021.6 - 0.0
08/06:00pm 20.0 16.0 13.0 64 4.1 S 26 37 14 20 1021.6 1019.8 0.0
08/05:30pm 20.7 16.6 12.7 60 4.6 S 26 39 14 21 1021.8 - 0.0
08/05:00pm 21.8 17.5 12.1 54 5.6 S 26 39 14 21 1021.8 - 0.0
08/04:30pm 22.2 17.6 12.2 53 5.8 S 28 41 15 22 1021.9 - 0.0
08/04:00pm 22.8 18.8 10.6 46 6.9 S 22 37 12 20 1022.0 - 0.0
08/03:30pm 22.3 18.0 12.0 52 5.9 S 26 37 14 20 1022.1 - 0.0
08/03:00pm 22.5 18.3 12.4 52 5.9 S 26 41 14 22 1022.2 1020.5 0.0
08/02:30pm 22.7 19.1 12.9 54 5.8 S 24 39 13 21 1022.3 - 0.0
08/02:00pm 22.6 18.9 13.9 58 5.2 S 26 39 14 21 1022.6 - 0.0
08/01:30pm 21.8 18.8 13.7 60 4.8 S 22 41 12 22 1022.7 - 0.0
08/01:00pm 21.5 18.6 13.9 62 4.5 S 22 33 12 18 1022.9 - 0.0
08/12:30pm 20.8 18.1 14.5 67 3.8 S 22 32 12 17 1023.0 - 0.0
08/12:00pm 20.7 18.0 14.6 68 3.6 S 22 32 12 17 1023.2 1021.4 0.0
08/11:30am 19.2 16.5 14.5 74 2.8 S 22 30 12 16 1023.4 - 0.0
08/11:00am 17.5 15.1 14.4 82 1.8 S 20 30 11 16 1023.3 - 0.0
08/10:30am 16.8 14.0 14.4 86 1.4 S 22 32 12 17 1023.2 - 0.0
08/10:00am 16.7 14.3 14.5 87 1.3 S 20 32 11 17 1023.1 - 0.0
08/09:30am 16.1 14.0 14.6 91 0.9 S 19 28 10 15 1022.9 - 0.0
08/09:12am 15.7 13.6 14.6 93 0.6 S 19 26 10 14 1022.8 - 0.0
08/09:00am 15.4 13.3 14.6 95 0.5 S 19 26 10 14 1022.8 1021.0 0.0
08/08:46am 15.3 13.7 15.0 98 0.2 S 17 26 9 14 1022.7 - 0.0
08/08:30am 15.1 13.1 14.9 99 0.1 S 19 24 10 13 1022.6 - 0.0
08/08:00am 14.8 12.5 14.6 99 0.1 S 20 28 11 15 1022.2 - 0.0
08/07:36am 14.8 12.7 14.6 99 0.1 S 19 26 10 14 1022.0 - 0.0
08/07:30am 14.8 12.7 14.6 99 0.1 S 19 26 10 14 1022.0 - 0.0
08/07:25am 14.8 12.7 14.6 99 0.1 S 19 30 10 16 1022.0 - 0.0
08/07:20am 14.7 12.5 14.5 99 0.1 S 19 30 10 16 1021.9 - 0.0
08/07:19am 14.7 12.5 14.5 99 0.1 S 19 30 10 16 1021.9 - 0.0
08/07:00am 14.7 12.5 14.5 99 0.1 S 19 26 10 14 1021.7 - 0.0
08/06:30am 14.7 12.9 14.5 99 0.1 S 17 24 9 13 1021.6 - 0.0
08/06:00am 14.7 12.3 14.4 98 0.2 S 20 28 11 15 1021.2 - 0.0
08/05:30am 14.8 12.4 14.5 98 0.2 S 20 26 11 14 1021.1 - 0.0
08/05:24am 14.8 12.4 14.5 98 0.2 S 20 28 11 15 1021.1 - 0.0
08/05:00am 14.9 12.7 14.4 97 0.3 S 19 26 10 14 1021.0 - 0.0
08/04:30am 14.9 12.7 14.4 97 0.3 S 19 26 10 14 1020.9 - 0.0
08/04:00am 15.0 12.6 14.5 97 0.3 S 20 30 11 16 1020.9 - 0.0
08/03:34am 15.0 12.3 14.7 98 0.2 S 22 28 12 15 1020.9 - 0.0
08/03:30am 15.0 12.3 14.7 98 0.2 S 22 33 12 18 1020.9 - 0.0
08/03:00am 15.0 12.4 14.8 99 0.1 S 22 35 12 19 1021.0 - 0.0
08/02:30am 15.1 12.5 14.9 99 0.1 S 22 33 12 18 1021.1 - 0.0
08/02:00am 15.1 12.1 14.9 99 0.1 S 24 30 13 16 1021.1 - 0.0
08/01:30am 15.2 12.6 15.0 99 0.1 S 22 30 12 16 1021.2 - 0.0
08/01:19am 15.2 12.6 15.0 99 0.1 S 22 30 12 16 1021.2 - 0.0
08/01:00am 15.3 12.4 15.1 99 0.1 S 24 33 13 18 1020.9 - 0.0
08/12:53am 15.4 12.9 15.2 99 0.1 S 22 32 12 17 1020.9 - 0.0
08/12:38am 15.5 12.9 15.0 97 0.3 S 22 32 12 17 1020.8 - 0.0
08/12:31am 15.4 12.8 14.9 97 0.3 S 22 32 12 17 1020.8 - 0.0
08/12:30am 15.5 12.9 15.0 97 0.3 S 22 32 12 17 1020.8 - 0.0
08/12:00am 15.7 13.1 13.9 89 1.0 S 20 28 11 15 1020.7 - 0.0
 
Date/Time
EDT
Temp
°C
App
Temp
°C
Dew
Point
Rel
Hum
%
Delta-T
°C
Wind Press
QNH
hPa
Press
MSL
hPa
Rain
since 9 am
mm
Dir
 
Spd
km/h
Gust
km/h
Spd
kts
Gust
kts
07/11:30pm 16.2 13.6 13.9 86 1.3 S 20 28 11 15 1020.7 - 0.0
07/11:00pm 16.6 14.1 14.1 85 1.5 S 20 28 11 15 1020.7 - 0.0
07/10:30pm 17.2 14.4 13.3 78 2.2 S 20 28 11 15 1020.8 - 0.0
07/10:00pm 18.2 14.4 11.0 63 4.0 S 22 33 12 18 1020.7 - 0.0
07/09:30pm 18.8 14.6 9.8 56 4.9 S 22 30 12 16 1020.3 - 0.0
07/09:00pm 19.5 15.6 9.4 52 5.5 S 20 30 11 16 1020.0 - 0.0
07/08:30pm 20.1 15.4 9.4 50 5.8 SSW 24 35 13 19 1019.6 - 0.0
07/08:00pm 20.8 16.6 9.7 49 6.1 S 22 32 12 17 1019.3 - 0.0
07/07:30pm 22.0 18.6 12.5 54 5.5 S 22 30 12 16 1019.0 - 0.0
07/07:00pm 24.5 22.2 14.6 54 6.0 S 20 30 11 16 1018.4 - 0.0
07/06:30pm 26.5 23.6 13.9 45 7.6 S 22 30 12 16 1018.0 - 0.0
07/06:00pm 27.3 23.4 13.3 42 8.4 S 26 35 14 19 1017.7 - 0.0
07/05:30pm 29.8 26.5 12.7 35 10.3 S 22 33 12 18 1017.5 - 0.0
07/05:00pm 30.5 27.2 12.9 34 10.7 SSE 22 32 12 17 1017.4 - 0.0
07/04:30pm 30.0 27.9 12.4 34 10.6 SSE 15 20 8 11 1017.4 - 0.0
07/04:00pm 31.1 30.3 12.9 32 11.1 SSW 9 26 5 14 1017.4 - 0.0
07/03:30pm 30.1 28.7 13.4 36 10.2 SSE 13 19 7 10 1017.7 - 0.0
07/03:00pm 28.6 27.0 11.6 34 10.0 NNW 11 19 6 10 1018.0 1016.2 0.0
07/02:30pm 28.4 27.7 11.9 36 9.8 E 7 13 4 7 1018.2 - 0.0
07/02:00pm 28.2 26.4 12.1 37 9.6 N 13 19 7 10 1018.4 - 0.0
07/01:30pm 29.1 27.4 12.5 36 9.9 N 13 20 7 11 1018.7 - 0.0
07/01:00pm 27.9 25.0 12.3 38 9.3 N 19 30 10 16 1019.0 - 0.0
07/12:30pm 27.7 26.5 14.0 43 8.4 N 13 22 7 12 1019.3 - 0.0
07/12:00pm 27.1 25.6 14.1 44 7.9 N 15 24 8 13 1019.6 - 0.0
07/11:30am 25.5 22.8 13.0 46 7.4 N 19 28 10 15 1019.6 - 0.0
07/11:00am 24.8 21.2 14.3 52 6.4 N 26 32 14 17 1019.5 - 0.0
07/10:30am 24.0 20.4 14.1 54 6.0 N 26 32 14 17 1019.5 - 0.0
07/10:00am 22.7 18.5 13.5 56 5.5 N 28 32 15 17 1019.5 - 0.0
07/09:30am 21.4 16.3 13.1 59 4.9 N 32 39 17 21 1019.2 - 0.0
07/09:00am 21.1 15.9 12.8 59 4.8 N 32 41 17 22 1019.2 1017.3 0.0
07/08:30am 20.8 16.4 12.8 60 4.6 N 28 35 15 19 1018.9 - 0.0
07/08:00am 20.3 16.0 13.3 64 4.1 N 28 33 15 18 1018.6 - 0.0
07/07:30am 19.8 15.7 12.8 64 4.0 N 26 33 14 18 1018.1 - 0.0
07/07:00am 19.6 16.7 12.4 63 4.1 N 19 22 10 12 1017.9 - 0.0
07/06:30am 19.8 16.9 12.3 62 4.3 N 19 20 10 11 1017.5 - 0.0
07/06:00am 20.4 18.0 11.3 56 5.1 N 15 17 8 9 1017.3 - 0.0
07/05:30am 21.5 19.0 10.9 51 6.0 NNW 15 17 8 9 1017.2 - 0.0
07/05:00am 21.4 19.2 12.0 55 5.4 N 15 17 8 9 1017.0 - 0.0
07/04:30am 21.2 18.6 12.1 56 5.2 N 17 17 9 9 1017.0 - 0.0
07/04:00am 21.2 19.2 12.6 58 5.0 N 15 17 8 9 1017.0 - 0.0
07/03:30am 21.1 18.6 12.3 57 5.1 N 17 19 9 10 1017.0 - 0.0
07/03:00am 21.7 20.0 12.3 55 5.4 NNW 13 15 7 8 1017.1 - 0.0
07/02:30am 21.6 20.0 12.7 57 5.2 NW 13 15 7 8 1017.2 - 0.0
07/02:00am 22.2 21.3 12.7 55 5.5 NNW 9 11 5 6 1017.3 - 0.0
07/01:30am 21.8 20.7 13.2 58 5.1 WNW 11 15 6 8 1017.5 - 0.0
07/01:00am 22.0 20.6 13.4 58 5.1 NW 13 15 7 8 1017.5 - 0.0
07/12:30am 22.2 20.6 12.7 55 5.5 NNW 13 15 7 8 1017.6 - 0.0
07/12:00am 22.0 20.8 12.8 56 5.4 NW 11 13 6 7 1017.5 - 0.0
 
Date/Time
EDT
Temp
°C
App
Temp
°C
Dew
Point
Rel
Hum
%
Delta-T
°C
Wind Press
QNH
hPa
Press
MSL
hPa
Rain
since 9 am
mm
Dir
 
Spd
km/h
Gust
km/h
Spd
kts
Gust
kts
06/11:30pm 22.6 21.7 12.5 53 5.9 NW 9 13 5 7 1017.5 - 0.0
06/11:00pm 23.4 22.2 12.7 51 6.3 NW 11 13 6 7 1017.3 - 0.0
06/10:30pm 23.0 23.3 12.3 51 6.2 ESE 2 6 1 3 1017.3 - 0.0
06/10:00pm 23.3 22.4 12.6 51 6.3 ESE 9 11 5 6 1017.1 - 0.0
06/09:30pm 23.1 21.1 12.7 52 6.1 SE 15 19 8 10 1016.7 - 0.0
06/09:00pm 23.3 21.3 12.6 51 6.3 SE 15 17 8 9 1016.3 - 0.0

Other Formats:

Comma delimited format used in spreadsheet applications
http://www.bom.gov.au/fwo/IDV60801/IDV60801.94860.axf

JavaScript Object Notation format (JSON) in row-major order
http://www.bom.gov.au/fwo/IDV60801/IDV60801.94860.json